SKW4719 KCOS-KDEN
Flight info
| Callsign | SKW4719 |
|---|---|
| Flight time | 0h 21m |
| Altitude | 16000 |
| Route | ADANE V389 LUFSE/N0336F150 JEFEL/N0334F140 |
| Aircraft | E75L/M-SDE3GILORVW/S |
Departure
| Time | 2026-05-07 01:06 |
|---|---|
| Airport | City of Colorado Springs Municipal Airport (KCOS) |
Arrival
| Time | 2026-05-07 01:27 |
|---|---|
| Airport | Denver International Airport (KDEN) |
| Time | Latitude | Longitude | Altitude | Speed | Heading |
|---|---|---|---|---|---|
| 2026-05-07 00:12 | 38.79932 | -104.70015 | 6142 ft | 0 kts | 268° |
| 2026-05-07 00:47 | 38.79931 | -104.69986 | 6142 ft | 4 kts | 274° |
| 2026-05-07 00:48 | 38.79927 | -104.69952 | 6142 ft | 4 kts | 287° |
| 2026-05-07 00:48 | 38.79914 | -104.69924 | 6142 ft | 4 kts | 331° |
| 2026-05-07 00:48 | 38.79902 | -104.69921 | 6142 ft | 1 kts | 0° |
| 2026-05-07 00:48 | 38.79900 | -104.69921 | 6142 ft | 0 kts | 0° |
| 2026-05-07 00:56 | 38.79902 | -104.69921 | 6142 ft | 2 kts | 0° |
| 2026-05-07 00:56 | 38.79920 | -104.69921 | 6142 ft | 3 kts | 0° |
| 2026-05-07 00:56 | 38.79957 | -104.69921 | 6142 ft | 8 kts | 360° |
| 2026-05-07 00:57 | 38.80011 | -104.69921 | 6144 ft | 7 kts | 360° |
| 2026-05-07 00:57 | 38.80053 | -104.69919 | 6145 ft | 2 kts | 15° |
| 2026-05-07 00:57 | 38.80068 | -104.69904 | 6146 ft | 3 kts | 53° |
| 2026-05-07 00:57 | 38.80076 | -104.69842 | 6146 ft | 9 kts | 89° |
| 2026-05-07 00:58 | 38.80079 | -104.69769 | 6146 ft | 7 kts | 92° |
| 2026-05-07 00:58 | 38.80093 | -104.69733 | 6146 ft | 3 kts | 41° |
| 2026-05-07 00:58 | 38.80129 | -104.69725 | 6147 ft | 8 kts | 1° |
| 2026-05-07 00:58 | 38.80185 | -104.69725 | 6148 ft | 8 kts | 0° |
| 2026-05-07 00:59 | 38.80336 | -104.69713 | 6150 ft | 8 kts | 37° |
| 2026-05-07 00:59 | 38.80361 | -104.69652 | 6150 ft | 9 kts | 82° |
| 2026-05-07 00:59 | 38.80362 | -104.69548 | 6150 ft | 12 kts | 89° |
| 2026-05-07 01:00 | 38.80362 | -104.69434 | 6150 ft | 13 kts | 90° |
| 2026-05-07 01:00 | 38.80362 | -104.69315 | 6150 ft | 14 kts | 90° |
| 2026-05-07 01:00 | 38.80361 | -104.69186 | 6150 ft | 15 kts | 90° |
| 2026-05-07 01:00 | 38.80360 | -104.69048 | 6150 ft | 16 kts | 90° |
| 2026-05-07 01:01 | 38.80360 | -104.68901 | 6150 ft | 17 kts | 91° |
| 2026-05-07 01:01 | 38.80402 | -104.68791 | 6151 ft | 12 kts | 12° |
| 2026-05-07 01:01 | 38.80487 | -104.68788 | 6153 ft | 15 kts | 360° |
| 2026-05-07 01:01 | 38.80597 | -104.68788 | 6154 ft | 18 kts | 0° |
| 2026-05-07 01:02 | 38.80727 | -104.68787 | 6156 ft | 19 kts | 0° |
| 2026-05-07 01:02 | 38.80856 | -104.68787 | 6158 ft | 19 kts | 360° |
| 2026-05-07 01:02 | 38.80986 | -104.68788 | 6161 ft | 19 kts | 0° |
| 2026-05-07 01:02 | 38.81113 | -104.68785 | 6164 ft | 18 kts | 359° |
| 2026-05-07 01:03 | 38.81240 | -104.68788 | 6170 ft | 18 kts | 359° |
| 2026-05-07 01:03 | 38.81366 | -104.68787 | 6167 ft | 18 kts | 1° |
| 2026-05-07 01:03 | 38.81491 | -104.68786 | 6173 ft | 18 kts | 0° |
| 2026-05-07 01:03 | 38.81584 | -104.68770 | 6170 ft | 7 kts | 44° |
| 2026-05-07 01:04 | 38.81598 | -104.68733 | 6173 ft | 5 kts | 78° |
| 2026-05-07 01:04 | 38.81602 | -104.68670 | 6171 ft | 10 kts | 92° |
| 2026-05-07 01:04 | 38.81573 | -104.68583 | 6170 ft | 11 kts | 155° |
| 2026-05-07 01:04 | 38.81518 | -104.68571 | 6172 ft | 0 kts | 174° |
| 2026-05-07 01:05 | 38.81514 | -104.68571 | 6172 ft | 3 kts | 179° |
| 2026-05-07 01:05 | 38.81226 | -104.68575 | 6165 ft | 81 kts | 179° |
| 2026-05-07 01:05 | 38.80431 | -104.68576 | 6235 ft | 140 kts | 181° |
| 2026-05-07 01:05 | 38.79350 | -104.68535 | 6672 ft | 172 kts | 180° |
| 2026-05-07 01:06 | 38.78030 | -104.68460 | 6994 ft | 205 kts | 175° |
| 2026-05-07 01:06 | 38.76564 | -104.67929 | 7503 ft | 233 kts | 161° |
| 2026-05-07 01:06 | 38.74943 | -104.67065 | 7981 ft | 280 kts | 155° |
| 2026-05-07 01:06 | 38.73210 | -104.65260 | 7707 ft | 358 kts | 128° |
| 2026-05-07 01:07 | 38.72200 | -104.62461 | 8458 ft | 324 kts | 102° |
| 2026-05-07 01:07 | 38.72235 | -104.59825 | 9266 ft | 278 kts | 73° |
| 2026-05-07 01:07 | 38.73177 | -104.57808 | 10149 ft | 254 kts | 39° |
| 2026-05-07 01:07 | 38.74700 | -104.56826 | 11008 ft | 242 kts | 11° |
| 2026-05-07 01:08 | 38.76305 | -104.56407 | 11886 ft | 235 kts | 7° |
| 2026-05-07 01:08 | 38.77903 | -104.56018 | 12732 ft | 236 kts | 6° |
| 2026-05-07 01:08 | 38.79590 | -104.55512 | 12880 ft | 266 kts | 16° |
| 2026-05-07 01:08 | 38.81295 | -104.54300 | 12993 ft | 290 kts | 30° |
| 2026-05-07 01:09 | 38.82891 | -104.52681 | 13030 ft | 294 kts | 36° |
| 2026-05-07 01:09 | 38.84404 | -104.50916 | 13008 ft | 295 kts | 40° |
| 2026-05-07 01:09 | 38.85779 | -104.48944 | 13009 ft | 296 kts | 45° |
| 2026-05-07 01:09 | 38.87106 | -104.46909 | 13019 ft | 297 kts | 45° |
| 2026-05-07 01:10 | 38.88405 | -104.44882 | 13008 ft | 298 kts | 45° |
| 2026-05-07 01:10 | 38.89786 | -104.42928 | 13004 ft | 292 kts | 33° |
| 2026-05-07 01:10 | 38.91543 | -104.41722 | 13025 ft | 285 kts | 16° |
| 2026-05-07 01:10 | 38.93427 | -104.40952 | 13018 ft | 283 kts | 10° |
| 2026-05-07 01:11 | 38.95342 | -104.40411 | 13005 ft | 281 kts | 6° |
| 2026-05-07 01:11 | 38.97267 | -104.39982 | 13017 ft | 280 kts | 5° |
| 2026-05-07 01:11 | 38.99195 | -104.39616 | 13023 ft | 280 kts | 2° |
| 2026-05-07 01:11 | 39.01129 | -104.39443 | 13008 ft | 279 kts | 359° |
| 2026-05-07 01:12 | 39.03065 | -104.39332 | 13012 ft | 278 kts | 358° |
| 2026-05-07 01:12 | 39.04966 | -104.39238 | 13023 ft | 278 kts | 358° |
| 2026-05-07 01:12 | 39.06918 | -104.39145 | 13022 ft | 279 kts | 358° |
| 2026-05-07 01:12 | 39.08860 | -104.39050 | 13004 ft | 279 kts | 358° |
| 2026-05-07 01:13 | 39.10799 | -104.38956 | 13009 ft | 278 kts | 358° |
| 2026-05-07 01:13 | 39.12736 | -104.38861 | 13035 ft | 279 kts | 358° |
| 2026-05-07 01:13 | 39.14683 | -104.38765 | 13028 ft | 279 kts | 358° |
| 2026-05-07 01:13 | 39.16619 | -104.38669 | 13022 ft | 279 kts | 358° |
| 2026-05-07 01:14 | 39.18553 | -104.38627 | 12999 ft | 276 kts | 350° |
| 2026-05-07 01:14 | 39.20273 | -104.39483 | 13005 ft | 269 kts | 321° |
| 2026-05-07 01:14 | 39.21583 | -104.41204 | 13027 ft | 269 kts | 310° |
| 2026-05-07 01:14 | 39.22803 | -104.43039 | 13008 ft | 269 kts | 310° |
| 2026-05-07 01:15 | 39.24041 | -104.44855 | 13010 ft | 269 kts | 311° |
| 2026-05-07 01:15 | 39.25121 | -104.46812 | 13009 ft | 270 kts | 292° |
| 2026-05-07 01:15 | 39.25451 | -104.49234 | 12281 ft | 282 kts | 276° |
| 2026-05-07 01:15 | 39.25702 | -104.51602 | 12796 ft | 268 kts | 291° |
| 2026-05-07 01:16 | 39.26737 | -104.53599 | 12863 ft | 271 kts | 318° |
| 2026-05-07 01:16 | 39.28307 | -104.54933 | 12925 ft | 272 kts | 333° |
| 2026-05-07 01:16 | 39.30080 | -104.55728 | 12972 ft | 274 kts | 341° |
| 2026-05-07 01:16 | 39.31886 | -104.56571 | 12982 ft | 272 kts | 331° |
| 2026-05-07 01:17 | 39.33492 | -104.57850 | 13006 ft | 271 kts | 322° |
| 2026-05-07 01:17 | 39.34927 | -104.59433 | 13007 ft | 270 kts | 315° |
| 2026-05-07 01:17 | 39.36186 | -104.61238 | 12996 ft | 270 kts | 309° |
| 2026-05-07 01:17 | 39.37357 | -104.63140 | 12983 ft | 270 kts | 310° |
| 2026-05-07 01:18 | 39.38604 | -104.64957 | 12994 ft | 271 kts | 313° |
| 2026-05-07 01:18 | 39.39911 | -104.66673 | 12991 ft | 271 kts | 316° |
| 2026-05-07 01:18 | 39.41444 | -104.68095 | 12986 ft | 273 kts | 331° |
| 2026-05-07 01:18 | 39.43235 | -104.68912 | 12980 ft | 275 kts | 345° |
| 2026-05-07 01:19 | 39.45158 | -104.69146 | 12985 ft | 278 kts | 355° |
| 2026-05-07 01:19 | 39.46583 | -104.69168 | 13002 ft | 279 kts | 356° |
| 2026-05-07 01:19 | 39.48595 | -104.69157 | 13006 ft | 279 kts | 357° |
| 2026-05-07 01:19 | 39.50285 | -104.69136 | 13005 ft | 279 kts | 357° |
| 2026-05-07 01:20 | 39.52223 | -104.69113 | 12995 ft | 279 kts | 357° |
| 2026-05-07 01:20 | 39.54157 | -104.69092 | 12990 ft | 278 kts | 357° |
| 2026-05-07 01:20 | 39.56089 | -104.69064 | 12998 ft | 278 kts | 357° |
| 2026-05-07 01:20 | 39.57980 | -104.69040 | 12973 ft | 264 kts | 357° |
| 2026-05-07 01:21 | 39.59757 | -104.69020 | 12794 ft | 255 kts | 356° |
| 2026-05-07 01:21 | 39.61539 | -104.69000 | 12505 ft | 251 kts | 356° |
| 2026-05-07 01:21 | 39.63272 | -104.68979 | 12293 ft | 243 kts | 356° |
| 2026-05-07 01:21 | 39.64909 | -104.68961 | 12183 ft | 232 kts | 356° |
| 2026-05-07 01:22 | 39.66476 | -104.68944 | 11893 ft | 216 kts | 356° |
| 2026-05-07 01:22 | 39.67955 | -104.68928 | 11398 ft | 211 kts | 356° |
| 2026-05-07 01:22 | 39.69310 | -104.68906 | 11200 ft | 179 kts | 356° |
| 2026-05-07 01:22 | 39.70501 | -104.68880 | 10971 ft | 165 kts | 355° |
| 2026-05-07 01:23 | 39.71643 | -104.68875 | 10607 ft | 166 kts | 355° |
| 2026-05-07 01:23 | 39.72806 | -104.68816 | 10037 ft | 168 kts | 358° |
| 2026-05-07 01:23 | 39.73978 | -104.68774 | 9395 ft | 169 kts | 356° |
| 2026-05-07 01:23 | 39.75121 | -104.68848 | 8963 ft | 160 kts | 349° |
| 2026-05-07 01:24 | 39.76233 | -104.68952 | 8477 ft | 160 kts | 1° |
| 2026-05-07 01:24 | 39.77285 | -104.68806 | 8387 ft | 145 kts | 356° |
| 2026-05-07 01:24 | 39.78177 | -104.68817 | 8106 ft | 144 kts | 355° |
| 2026-05-07 01:24 | 39.79212 | -104.68798 | 7628 ft | 151 kts | 358° |
| 2026-05-07 01:25 | 39.80256 | -104.68792 | 7257 ft | 153 kts | 358° |
| 2026-05-07 01:25 | 39.81313 | -104.68778 | 6985 ft | 154 kts | 358° |
| 2026-05-07 01:25 | 39.82419 | -104.68770 | 6661 ft | 157 kts | 358° |
| 2026-05-07 01:25 | 39.83511 | -104.68765 | 6224 ft | 156 kts | 359° |
| 2026-05-07 01:26 | 39.84590 | -104.68748 | 5851 ft | 154 kts | 359° |
| 2026-05-07 01:26 | 39.85649 | -104.68735 | 5597 ft | 151 kts | 359° |
| 2026-05-07 01:26 | 39.86702 | -104.68719 | 5362 ft | 149 kts | 360° |
| 2026-05-07 01:26 | 39.87613 | -104.68708 | 5360 ft | 111 kts | 360° |
| 2026-05-07 01:27 | 39.88262 | -104.68696 | 5359 ft | 57 kts | 3° |
| 2026-05-07 01:27 | 39.88529 | -104.68618 | 5358 ft | 12 kts | 29° |
| 2026-05-07 01:27 | 39.88573 | -104.68586 | 5358 ft | 0 kts | 30° |
| 2026-05-07 01:28 | 39.88578 | -104.68583 | 5357 ft | 4 kts | 30° |
| 2026-05-07 01:28 | 39.88600 | -104.68524 | 5358 ft | 9 kts | 96° |
| 2026-05-07 01:29 | 39.88584 | -104.68490 | 5358 ft | 4 kts | 158° |
| 2026-05-07 01:29 | 39.88565 | -104.68490 | 5358 ft | 1 kts | 175° |
| 2026-05-07 01:29 | 39.88539 | -104.68485 | 5357 ft | 6 kts | 171° |
| 2026-05-07 01:29 | 39.88481 | -104.68480 | 5358 ft | 8 kts | 180° |
| 2026-05-07 01:30 | 39.88417 | -104.68480 | 5358 ft | 10 kts | 180° |
| 2026-05-07 01:30 | 39.88342 | -104.68481 | 5358 ft | 11 kts | 181° |
| 2026-05-07 01:30 | 39.88258 | -104.68482 | 5358 ft | 13 kts | 180° |
| 2026-05-07 01:30 | 39.88166 | -104.68483 | 5358 ft | 14 kts | 180° |
| 2026-05-07 01:31 | 39.88066 | -104.68484 | 5359 ft | 15 kts | 181° |
| 2026-05-07 01:31 | 39.87960 | -104.68486 | 5359 ft | 16 kts | 180° |
| 2026-05-07 01:31 | 39.87848 | -104.68488 | 5359 ft | 17 kts | 181° |
| 2026-05-07 01:31 | 39.87727 | -104.68490 | 5359 ft | 18 kts | 180° |
| 2026-05-07 01:32 | 39.87601 | -104.68491 | 5359 ft | 18 kts | 180° |
| 2026-05-07 01:32 | 39.87471 | -104.68492 | 5359 ft | 19 kts | 181° |
| 2026-05-07 01:32 | 39.87383 | -104.68493 | 5359 ft | 19 kts | 180° |
| 2026-05-07 01:32 | 39.87245 | -104.68496 | 5358 ft | 20 kts | 181° |
| 2026-05-07 01:33 | 39.87108 | -104.68497 | 5360 ft | 20 kts | 177° |
| 2026-05-07 01:33 | 39.86963 | -104.68498 | 5360 ft | 21 kts | 180° |
| 2026-05-07 01:33 | 39.86815 | -104.68499 | 5360 ft | 21 kts | 181° |
| 2026-05-07 01:33 | 39.86663 | -104.68506 | 5359 ft | 22 kts | 182° |
| 2026-05-07 01:34 | 39.86639 | -104.68505 | 5359 ft | 1 kts | 178° |
| 2026-05-07 01:34 | 39.86625 | -104.68505 | 5359 ft | 3 kts | 178° |
| 2026-05-07 01:34 | 39.86603 | -104.68504 | 5360 ft | 4 kts | 178° |
| 2026-05-07 01:34 | 39.86541 | -104.68502 | 5360 ft | 12 kts | 179° |
| 2026-05-07 01:35 | 39.86443 | -104.68503 | 5361 ft | 15 kts | 180° |
| 2026-05-07 01:35 | 39.86341 | -104.68504 | 5362 ft | 15 kts | 180° |
| 2026-05-07 01:35 | 39.86240 | -104.68506 | 5363 ft | 14 kts | 181° |
| 2026-05-07 01:35 | 39.86156 | -104.68485 | 5365 ft | 12 kts | 135° |
| 2026-05-07 01:36 | 39.86139 | -104.68394 | 5368 ft | 10 kts | 90° |
| 2026-05-07 01:36 | 39.86140 | -104.68312 | 5370 ft | 9 kts | 89° |
| 2026-05-07 01:36 | 39.86139 | -104.68219 | 5369 ft | 11 kts | 91° |
| 2026-05-07 01:36 | 39.86126 | -104.68119 | 5370 ft | 11 kts | 130° |
| 2026-05-07 01:37 | 39.86072 | -104.68084 | 5377 ft | 7 kts | 163° |
| 2026-05-07 01:37 | 39.86023 | -104.68064 | 5377 ft | 9 kts | 163° |
| 2026-05-07 01:37 | 39.85955 | -104.68054 | 5376 ft | 10 kts | 178° |
| 2026-05-07 01:37 | 39.85946 | -104.68053 | 5376 ft | 1 kts | 178° |
| 2026-05-07 01:38 | 39.85933 | -104.68053 | 5374 ft | 3 kts | 180° |
| 2026-05-07 01:38 | 39.85931 | -104.68053 | 5376 ft | 0 kts | 179° |